Glenn W Jones — WDC6543 — position and weather

sailwx.info

Track history (hours):
 
Tides and Currents Weather Stations Pressure Air Temp Water Temp Dewpoint Dewpoint Depression Visibility Wind Speed Wind Dir Waves Ship Positions

Glenn W Jones

Owner: American Commercial Lines LLC, Jeffersonville, IN. More information available from US FCC via Universal Licensing System and Coast Guard Vessel Documentation Center.

Last reported at 2018-Apr-23 21:12 UTC. Time now 2018-Apr-25 14:11 UTC.
Position N 31°58' W 091°11'.

Length 39 m; draft 2.9 m.

Type: . MMSI: 367057710.

Date/timePositionNaut miles runAvg speedWind from/ knotsBaromVisibWave heightAir tempDewpointWater temp
2018-Apr-23 21:12N 31°58' W 091°11'3 8.4
2018-Apr-23 20:50N 31°59' W 091°08'6 9.1
2018-Apr-23 20:14N 32°03' W 091°03'4 8.1
2018-Apr-23 19:45N 32°06' W 091°06'2 7.5
2018-Apr-23 19:31N 32°08' W 091°05'4 8.4
2018-Apr-23 19:00N 32°09' W 091°00'510.0
2018-Apr-23 18:30N 32°13' W 090°59'4 8.7
2018-Apr-23 18:00N 32°17' W 090°56'1 2.2
2018-Apr-23 17:30N 32°18' W 090°56'0 0.0
2018-Apr-23 17:00N 32°18' W 090°56'0 0.0
2018-Apr-23 16:30N 32°18' W 090°56'0 0.0
2018-Apr-23 16:00N 32°18' W 090°56'0 0.2
2018-Apr-23 15:30N 32°18' W 090°56'1 2.4
2018-Apr-23 15:00N 32°19' W 090°54'3 6.9
2018-Apr-23 14:30N 32°21' W 090°58'4 7.2
2018-Apr-23 14:00N 32°24' W 090°60'5 9.5
2018-Apr-23 13:30N 32°27' W 091°04'5 9.2
2018-Apr-23 13:00N 32°31' W 091°06'5 9.3
2018-Apr-23 12:30N 32°35' W 091°08'  
2018-Apr-15 03:18N 32°40' W 091°08'2 4.4
2018-Apr-15 02:52N 32°38' W 091°09'2 4.6
2018-Apr-15 02:28N 32°36' W 091°09'2 3.7
2018-Apr-15 02:00N 32°35' W 091°07'2 4.0
2018-Apr-15 01:30N 32°33' W 091°07'2 4.7
2018-Apr-15 01:00N 32°31' W 091°07'2 5.0
2018-Apr-15 00:30N 32°28' W 091°07'2 3.9
2018-Apr-15 00:00N 32°27' W 091°05'2 4.5
2018-Apr-14 23:30N 32°26' W 091°02'3 5.1
2018-Apr-14 22:59N 32°25' W 090°60'2 4.6
2018-Apr-14 22:30N 32°23' W 091°00'2 3.6
2018-Apr-14 22:00N 32°21' W 090°59'2 4.6
2018-Apr-14 21:30N 32°21' W 090°56'2 3.8
2018-Apr-14 21:00N 32°20' W 090°54'2 3.4
2018-Apr-14 20:30N 32°18' W 090°55'1 2.4
2018-Apr-14 20:00N 32°18' W 090°56'0 0.1
2018-Apr-14 19:30N 32°18' W 090°56'0 0.0
2018-Apr-14 19:00N 32°18' W 090°56'0 0.0
2018-Apr-14 18:30N 32°18' W 090°56'0 0.0
2018-Apr-14 18:00N 32°18' W 090°56'0 0.0
2018-Apr-14 17:30N 32°18' W 090°56'0 0.0
2018-Apr-14 17:00N 32°18' W 090°56'0 0.0
2018-Apr-14 16:30N 32°18' W 090°56'0 0.0
2018-Apr-14 16:00N 32°18' W 090°56'1 1.3
2018-Apr-14 15:30N 32°17' W 090°57'1 2.6
2018-Apr-14 15:00N 32°16' W 090°58'2 4.4
2018-Apr-14 14:30N 32°14' W 090°59'2 4.6
2018-Apr-14 14:00N 32°12' W 090°59'2 3.6
2018-Apr-14 13:30N 32°10' W 090°60'2 3.9
2018-Apr-14 13:00N 32°08' W 091°00'2 3.4
2018-Apr-14 12:30N 32°07' W 091°02'2 3.8
2018-Apr-14 11:56N 32°08' W 091°05'1 3.4
2018-Apr-14 11:30N 32°07' W 091°06'4 4.5
2018-Apr-14 10:39N 32°04' W 091°04'1 3.9
2018-Apr-14 10:29N 32°03' W 091°04'2 4.3
2018-Apr-14 10:00N 32°01' W 091°05'  
Track history (hours):
 
Tides and Currents Weather Stations Pressure Air Temp Water Temp Dewpoint Dewpoint Depression Visibility Wind Speed Wind Dir Waves Ship Positions

Glenn W Jones

Owner: American Commercial Lines LLC, Jeffersonville, IN. More information available from US FCC via Universal Licensing System and Coast Guard Vessel Documentation Center.

Last reported at 2018-Apr-23 21:12 UTC. Time now 2018-Apr-25 14:11 UTC.
Position N 31°58' W 091°11'.

Length 39 m; draft 2.9 m.

Type: . MMSI: 367057710.

Date/timePositionNaut miles runAvg speedWind from/ knotsBaromVisibWave heightAir tempDewpointWater temp
2018-Apr-23 21:12N 31°58' W 091°11'3 8.4
2018-Apr-23 20:50N 31°59' W 091°08'6 9.1
2018-Apr-23 20:14N 32°03' W 091°03'4 8.1
2018-Apr-23 19:45N 32°06' W 091°06'2 7.5
2018-Apr-23 19:31N 32°08' W 091°05'4 8.4
2018-Apr-23 19:00N 32°09' W 091°00'510.0
2018-Apr-23 18:30N 32°13' W 090°59'4 8.7
2018-Apr-23 18:00N 32°17' W 090°56'1 2.2
2018-Apr-23 17:30N 32°18' W 090°56'0 0.0
2018-Apr-23 17:00N 32°18' W 090°56'0 0.0
2018-Apr-23 16:30N 32°18' W 090°56'0 0.0
2018-Apr-23 16:00N 32°18' W 090°56'0 0.2
2018-Apr-23 15:30N 32°18' W 090°56'1 2.4
2018-Apr-23 15:00N 32°19' W 090°54'3 6.9
2018-Apr-23 14:30N 32°21' W 090°58'4 7.2
2018-Apr-23 14:00N 32°24' W 090°60'5 9.5
2018-Apr-23 13:30N 32°27' W 091°04'5 9.2
2018-Apr-23 13:00N 32°31' W 091°06'5 9.3
2018-Apr-23 12:30N 32°35' W 091°08'  
2018-Apr-15 03:18N 32°40' W 091°08'2 4.4
2018-Apr-15 02:52N 32°38' W 091°09'2 4.6
2018-Apr-15 02:28N 32°36' W 091°09'2 3.7
2018-Apr-15 02:00N 32°35' W 091°07'2 4.0
2018-Apr-15 01:30N 32°33' W 091°07'2 4.7
2018-Apr-15 01:00N 32°31' W 091°07'2 5.0
2018-Apr-15 00:30N 32°28' W 091°07'2 3.9
2018-Apr-15 00:00N 32°27' W 091°05'2 4.5
2018-Apr-14 23:30N 32°26' W 091°02'3 5.1
2018-Apr-14 22:59N 32°25' W 090°60'2 4.6
2018-Apr-14 22:30N 32°23' W 091°00'2 3.6
2018-Apr-14 22:00N 32°21' W 090°59'2 4.6
2018-Apr-14 21:30N 32°21' W 090°56'2 3.8
2018-Apr-14 21:00N 32°20' W 090°54'2 3.4
2018-Apr-14 20:30N 32°18' W 090°55'1 2.4
2018-Apr-14 20:00N 32°18' W 090°56'0 0.1
2018-Apr-14 19:30N 32°18' W 090°56'0 0.0
2018-Apr-14 19:00N 32°18' W 090°56'0 0.0
2018-Apr-14 18:30N 32°18' W 090°56'0 0.0
2018-Apr-14 18:00N 32°18' W 090°56'0 0.0
2018-Apr-14 17:30N 32°18' W 090°56'0 0.0
2018-Apr-14 17:00N 32°18' W 090°56'0 0.0
2018-Apr-14 16:30N 32°18' W 090°56'0 0.0
2018-Apr-14 16:00N 32°18' W 090°56'1 1.3
2018-Apr-14 15:30N 32°17' W 090°57'1 2.6
2018-Apr-14 15:00N 32°16' W 090°58'2 4.4
2018-Apr-14 14:30N 32°14' W 090°59'2 4.6
2018-Apr-14 14:00N 32°12' W 090°59'2 3.6
2018-Apr-14 13:30N 32°10' W 090°60'2 3.9
2018-Apr-14 13:00N 32°08' W 091°00'2 3.4
2018-Apr-14 12:30N 32°07' W 091°02'2 3.8
2018-Apr-14 11:56N 32°08' W 091°05'1 3.4
2018-Apr-14 11:30N 32°07' W 091°06'4 4.5
2018-Apr-14 10:39N 32°04' W 091°04'1 3.9
2018-Apr-14 10:29N 32°03' W 091°04'2 4.3
2018-Apr-14 10:00N 32°01' W 091°05'  

Dump ship's entire track history